Time;durP1;ratioP1;P1;durP2;ratioP2;P2;SDS_P1;SDS_P2;PMS_P1;PMS_P2;Temp;Humidity;BMP_temperature;BMP_pressure;BME280_temperature;BME280_humidity;BME280_pressure;Samples;Min_cycle;Max_cycle;Signal;HPM_P1;HPM_P2
2021/11/22 00:01:27;;;;;;;4.80;3.50;;;;;;;;;;4997866;28;20223;-74
2021/11/22 00:03:58;;;;;;;7.83;3.90;;;;;;;;;;5014472;28;20606;-75
2021/11/22 00:06:28;;;;;;;6.53;4.53;;;;;;;;;;4995853;28;20237;-74
2021/11/22 00:08:56;;;;;;;6.63;4.00;;;;;;;;;;5005637;28;20634;-73
2021/11/22 00:11:22;;;;;;;9.73;4.20;;;;;;;;;;5009090;28;20263;-72
2021/11/22 00:13:47;;;;;;;8.10;4.77;;;;;;;;;;4977607;28;20233;-75
2021/11/22 00:16:13;;;;;;;4.77;3.67;;;;;;;;;;4992599;28;20278;-73
2021/11/22 00:18:39;;;;;;;7.07;4.63;;;;;;;;;;4996977;28;20724;-73
2021/11/22 00:21:05;;;;;;;5.47;3.80;;;;;;;;;;4977054;28;20214;-75
2021/11/22 00:23:33;;;;;;;7.13;4.17;;;;;;;;;;4993888;28;20652;-75
2021/11/22 00:25:58;;;;;;;8.93;3.67;;;;;;;;;;5006065;28;20236;-74
2021/11/22 00:28:26;;;;;;;4.47;3.50;;;;;;;;;;5014201;28;20231;-75
2021/11/22 00:31:22;;;;;;;5.33;3.67;;;;;;;;;;4996147;28;20271;-74
2021/11/22 00:33:54;;;;;;;5.23;3.13;;;;;;;;;;5014399;28;20220;-74
2021/11/22 00:36:38;;;;;;;5.80;3.60;;;;;;;;;;5015049;28;20298;-74
2021/11/22 00:39:06;;;;;;;6.80;4.20;;;;;;;;;;5003916;28;20646;-75
2021/11/22 00:41:34;;;;;;;5.80;3.53;;;;;;;;;;5014255;28;20220;-75
2021/11/22 00:44:01;;;;;;;3.93;3.50;;;;;;;;;;4999302;28;20220;-76
2021/11/22 00:46:29;;;;;;;4.77;3.43;;;;;;;;;;4997895;28;20679;-74
2021/11/22 00:48:55;;;;;;;4.53;3.07;;;;;;;;;;4996222;28;20224;-74
2021/11/22 00:51:22;;;;;;;4.47;3.30;;;;;;;;;;4993161;28;20228;-75
2021/11/22 00:53:47;;;;;;;5.70;3.30;;;;;;;;;;4976641;28;20228;-74
2021/11/22 00:56:16;;;;;;;3.37;3.00;;;;;;;;;;4982731;28;20220;-74
2021/11/22 00:58:43;;;;;;;5.53;3.10;;;;;;;;;;4976538;28;20340;-75
2021/11/22 01:01:09;;;;;;;4.93;3.13;;;;;;;;;;4998721;28;20303;-74
2021/11/22 01:03:37;;;;;;;6.33;3.20;;;;;;;;;;4960332;28;20282;-75
2021/11/22 01:06:05;;;;;;;3.53;3.07;;;;;;;;;;4997002;28;20229;-74
2021/11/22 01:08:33;;;;;;;3.83;3.03;;;;;;;;;;5000365;28;20247;-74
2021/11/22 01:10:58;;;;;;;4.67;3.03;;;;;;;;;;5025543;28;20225;-74
2021/11/22 01:13:29;;;;;;;3.50;3.20;;;;;;;;;;4992422;28;20300;-74
2021/11/22 01:15:54;;;;;;;3.90;2.77;;;;;;;;;;5005291;28;20228;-74
2021/11/22 01:18:20;;;;;;;5.47;3.60;;;;;;;;;;4984865;28;20233;-74
2021/11/22 01:20:48;;;;;;;5.20;3.07;;;;;;;;;;4985065;28;20343;-74
2021/11/22 01:23:19;;;;;;;4.90;3.10;;;;;;;;;;5001220;28;20729;-74
2021/11/22 01:25:44;;;;;;;4.67;3.30;;;;;;;;;;5000392;28;20256;-74
2021/11/22 01:28:10;;;;;;;4.83;2.80;;;;;;;;;;4998644;28;20224;-74
2021/11/22 01:30:36;;;;;;;6.57;3.53;;;;;;;;;;5000370;28;20285;-75
2021/11/22 01:33:07;;;;;;;5.50;3.67;;;;;;;;;;4982687;28;20243;-74
2021/11/22 01:35:33;;;;;;;4.07;3.03;;;;;;;;;;4998635;28;20232;-74
2021/11/22 01:37:58;;;;;;;5.53;3.33;;;;;;;;;;4994989;28;20212;-75
2021/11/22 01:40:27;;;;;;;5.30;3.40;;;;;;;;;;4997181;28;20223;-75
2021/11/22 01:42:55;;;;;;;5.43;3.73;;;;;;;;;;4994478;28;20228;-75
2021/11/22 01:45:21;;;;;;;5.90;3.00;;;;;;;;;;4979455;28;20233;-74
2021/11/22 01:47:47;;;;;;;4.47;3.07;;;;;;;;;;4993510;28;20412;-74
2021/11/22 01:50:14;;;;;;;3.80;3.10;;;;;;;;;;4979871;28;20229;-75
2021/11/22 01:52:45;;;;;;;7.67;3.37;;;;;;;;;;4989849;28;20733;-74
2021/11/22 01:55:13;;;;;;;5.40;3.13;;;;;;;;;;4996695;28;20320;-74
2021/11/22 01:57:40;;;;;;;7.33;3.10;;;;;;;;;;4997260;28;20249;-74
2021/11/22 02:00:09;;;;;;;3.73;3.03;;;;;;;;;;4981082;28;20244;-75
2021/11/22 02:02:38;;;;;;;4.90;2.80;;;;;;;;;;4992003;28;20221;-75
2021/11/22 02:05:06;;;;;;;4.23;2.97;;;;;;;;;;5013945;28;20231;-75
2021/11/22 02:07:37;;;;;;;3.47;2.70;;;;;;;;;;5016587;28;20295;-75
2021/11/22 02:10:05;;;;;;;5.13;2.57;;;;;;;;;;5021324;28;20221;-74
2021/11/22 02:12:32;;;;;;;4.20;2.50;;;;;;;;;;5006889;28;20248;-75
2021/11/22 02:15:03;;;;;;;3.23;2.53;;;;;;;;;;5014929;28;20225;-73
2021/11/22 02:17:32;;;;;;;3.50;2.77;;;;;;;;;;5002059;28;20225;-75
2021/11/22 02:20:03;;;;;;;4.77;3.00;;;;;;;;;;4979575;28;20275;-75
2021/11/22 02:22:33;;;;;;;4.07;2.53;;;;;;;;;;4987681;28;20312;-73
2021/11/22 02:24:59;;;;;;;3.07;2.50;;;;;;;;;;4999793;28;20290;-73
2021/11/22 02:27:24;;;;;;;4.27;2.93;;;;;;;;;;4995035;28;20248;-73
2021/11/22 02:29:52;;;;;;;3.03;2.50;;;;;;;;;;4978725;28;20221;-73
2021/11/22 02:32:20;;;;;;;4.53;2.67;;;;;;;;;;5001480;28;20219;-75
2021/11/22 02:34:49;;;;;;;5.53;3.10;;;;;;;;;;4983395;28;20259;-73
2021/11/22 02:37:14;;;;;;;4.13;2.80;;;;;;;;;;5000911;28;20229;-75
2021/11/22 02:39:40;;;;;;;3.17;2.87;;;;;;;;;;5006684;28;20721;-73
2021/11/22 02:42:24;;;;;;;3.53;3.00;;;;;;;;;;4993344;28;20714;-74
2021/11/22 02:44:51;;;;;;;3.90;3.47;;;;;;;;;;4997027;28;20240;-75
2021/11/22 02:47:20;;;;;;;6.70;3.70;;;;;;;;;;5000333;28;20221;-75
2021/11/22 02:49:46;;;;;;;4.73;3.77;;;;;;;;;;5014699;28;20857;-75
2021/11/22 02:52:12;;;;;;;4.63;3.50;;;;;;;;;;5017409;28;20213;-75
2021/11/22 02:54:38;;;;;;;5.07;4.13;;;;;;;;;;5015861;28;20284;-74
2021/11/22 02:57:04;;;;;;;4.10;3.67;;;;;;;;;;5014815;28;20217;-75
2021/11/22 02:59:30;;;;;;;4.83;3.87;;;;;;;;;;5015994;28;20225;-75
2021/11/22 03:01:56;;;;;;;4.07;3.50;;;;;;;;;;5016161;28;20277;-75
2021/11/22 03:04:34;;;;;;;6.30;3.73;;;;;;;;;;4999478;28;20236;-74
2021/11/22 03:07:02;;;;;;;5.33;3.73;;;;;;;;;;4999376;28;20691;-75
2021/11/22 03:09:28;;;;;;;4.70;3.67;;;;;;;;;;5005921;28;20268;-74
2021/11/22 03:11:58;;;;;;;5.00;3.60;;;;;;;;;;4995363;28;20213;-75
2021/11/22 03:14:25;;;;;;;5.40;3.87;;;;;;;;;;4996219;28;20224;-75
2021/11/22 03:16:54;;;;;;;5.77;3.87;;;;;;;;;;5013704;28;20220;-74
2021/11/22 03:19:22;;;;;;;4.17;3.77;;;;;;;;;;4992965;28;20236;-75
2021/11/22 03:21:47;;;;;;;3.50;3.10;;;;;;;;;;4994391;28;20846;-74
2021/11/22 03:24:13;;;;;;;5.33;3.90;;;;;;;;;;4978339;28;20304;-75
2021/11/22 03:26:41;;;;;;;4.10;3.47;;;;;;;;;;4977293;28;20699;-74
2021/11/22 03:29:12;;;;;;;7.20;4.00;;;;;;;;;;5007732;28;20221;-75
2021/11/22 03:31:42;;;;;;;8.00;3.80;;;;;;;;;;4998255;28;20801;-74
2021/11/22 03:34:11;;;;;;;4.40;4.00;;;;;;;;;;4992809;28;20217;-75
2021/11/22 03:36:37;;;;;;;4.77;3.60;;;;;;;;;;4979755;28;20232;-75
2021/11/22 03:39:08;;;;;;;5.47;3.60;;;;;;;;;;5001805;28;20228;-74
2021/11/22 03:41:34;;;;;;;4.00;3.47;;;;;;;;;;5015634;28;20220;-75
2021/11/22 03:44:15;;;;;;;6.30;3.67;;;;;;;;;;4990107;28;20303;-74
2021/11/22 03:46:47;;;;;;;6.27;3.73;;;;;;;;;;4999515;28;20305;-74
2021/11/22 03:49:15;;;;;;;5.13;3.43;;;;;;;;;;5010105;28;20217;-74
2021/11/22 03:51:43;;;;;;;4.97;3.27;;;;;;;;;;4962733;28;20241;-74
2021/11/22 03:54:13;;;;;;;4.30;3.20;;;;;;;;;;5015042;28;20234;-75
2021/11/22 03:56:44;;;;;;;4.57;3.20;;;;;;;;;;4982114;28;20300;-74
2021/11/22 03:59:12;;;;;;;7.47;3.17;;;;;;;;;;4992738;28;20216;-74
2021/11/22 04:01:40;;;;;;;5.53;3.60;;;;;;;;;;5019715;28;20220;-74
2021/11/22 04:04:08;;;;;;;5.60;3.10;;;;;;;;;;5002988;28;20225;-75
2021/11/22 04:06:34;;;;;;;4.17;3.37;;;;;;;;;;5024075;28;20294;-74
2021/11/22 04:09:02;;;;;;;4.30;3.00;;;;;;;;;;5005899;28;20241;-74
2021/11/22 04:11:30;;;;;;;5.87;3.37;;;;;;;;;;5039231;28;20235;-74
2021/11/22 04:13:58;;;;;;;4.63;3.23;;;;;;;;;;5012335;28;20292;-74
2021/11/22 04:16:23;;;;;;;4.77;3.63;;;;;;;;;;5001409;28;20224;-75
2021/11/22 04:18:52;;;;;;;7.77;3.10;;;;;;;;;;4999699;28;20213;-73
2021/11/22 04:21:21;;;;;;;4.13;2.90;;;;;;;;;;4981303;28;20277;-74
2021/11/22 04:23:47;;;;;;;5.67;3.30;;;;;;;;;;4994560;28;20216;-74
2021/11/22 04:26:15;;;;;;;3.77;3.23;;;;;;;;;;5000851;28;20284;-75
2021/11/22 04:28:41;;;;;;;5.00;3.10;;;;;;;;;;5019058;28;20271;-74
2021/11/22 04:31:09;;;;;;;6.80;3.50;;;;;;;;;;5017736;28;20690;-74
2021/11/22 04:33:38;;;;;;;4.43;2.90;;;;;;;;;;5017302;28;20609;-74
2021/11/22 04:36:08;;;;;;;5.20;3.53;;;;;;;;;;5016541;28;20231;-75
2021/11/22 04:38:34;;;;;;;4.40;3.03;;;;;;;;;;5009429;28;20300;-75
2021/11/22 04:41:00;;;;;;;5.23;3.23;;;;;;;;;;5033040;28;20231;-74
2021/11/22 04:43:26;;;;;;;6.20;3.33;;;;;;;;;;5037501;28;20243;-73
2021/11/22 04:45:51;;;;;;;5.43;3.27;;;;;;;;;;5020882;28;20233;-75
2021/11/22 04:48:19;;;;;;;6.73;3.20;;;;;;;;;;5014090;28;20675;-73
2021/11/22 04:50:47;;;;;;;6.10;3.33;;;;;;;;;;4983065;28;20602;-74
2021/11/22 04:53:15;;;;;;;4.73;3.20;;;;;;;;;;4996765;28;20578;-74
2021/11/22 04:55:41;;;;;;;4.37;3.33;;;;;;;;;;4994308;28;20225;-73
2021/11/22 04:58:11;;;;;;;4.67;3.03;;;;;;;;;;4999630;28;20276;-75
2021/11/22 05:00:39;;;;;;;4.43;2.93;;;;;;;;;;4993595;28;20308;-75
2021/11/22 05:03:06;;;;;;;4.57;3.23;;;;;;;;;;4980674;28;20247;-74
2021/11/22 05:05:32;;;;;;;4.00;3.10;;;;;;;;;;4993215;28;20682;-74
2021/11/22 05:08:05;;;;;;;3.80;3.20;;;;;;;;;;4989897;28;20438;-74
2021/11/22 05:10:44;;;;;;;4.67;3.23;;;;;;;;;;5005022;28;20315;-74
2021/11/22 05:13:15;;;;;;;5.70;2.90;;;;;;;;;;5010576;28;20216;-74
2021/11/22 05:15:44;;;;;;;5.47;3.40;;;;;;;;;;4976561;28;20308;-73
2021/11/22 05:18:12;;;;;;;5.50;3.73;;;;;;;;;;4978430;28;20218;-74
2021/11/22 05:20:39;;;;;;;8.20;4.03;;;;;;;;;;4994064;28;20275;-73
2021/11/22 05:23:09;;;;;;;4.93;3.70;;;;;;;;;;4947183;28;20268;-75
2021/11/22 05:25:37;;;;;;;6.40;3.90;;;;;;;;;;4983719;28;20236;-73
2021/11/22 05:28:04;;;;;;;5.67;3.10;;;;;;;;;;4961343;28;20579;-76
2021/11/22 05:30:32;;;;;;;4.70;3.73;;;;;;;;;;4984834;28;20338;-75
2021/11/22 05:33:02;;;;;;;8.30;4.07;;;;;;;;;;5030836;28;20223;-73
2021/11/22 05:35:28;;;;;;;5.80;4.30;;;;;;;;;;4987964;28;20229;-75
2021/11/22 05:37:56;;;;;;;5.70;3.60;;;;;;;;;;5016009;28;20231;-74
2021/11/22 05:40:22;;;;;;;6.30;4.17;;;;;;;;;;5006335;28;25898;-75
2021/11/22 05:42:47;;;;;;;5.80;4.70;;;;;;;;;;4993909;28;20742;-74
2021/11/22 05:45:15;;;;;;;6.50;4.37;;;;;;;;;;4981574;28;20221;-75
2021/11/22 05:47:43;;;;;;;6.73;4.30;;;;;;;;;;4981223;28;20223;-74
2021/11/22 05:50:09;;;;;;;7.73;4.43;;;;;;;;;;4995586;28;20228;-74
2021/11/22 05:52:36;;;;;;;7.57;4.70;;;;;;;;;;5012849;28;20221;-74
2021/11/22 05:55:10;;;;;;;5.53;3.83;;;;;;;;;;4994231;28;20304;-75
2021/11/22 05:57:38;;;;;;;5.43;4.77;;;;;;;;;;5003665;28;20219;-75
2021/11/22 06:00:05;;;;;;;6.70;4.50;;;;;;;;;;5003841;28;20225;-74
2021/11/22 06:02:40;;;;;;;6.73;4.60;;;;;;;;;;4991970;28;20225;-74
2021/11/22 06:05:08;;;;;;;6.53;4.37;;;;;;;;;;4989617;28;20220;-74
2021/11/22 06:07:34;;;;;;;6.63;4.77;;;;;;;;;;5005815;28;20596;-75
2021/11/22 06:09:59;;;;;;;6.70;4.10;;;;;;;;;;4994976;28;20227;-74
2021/11/22 06:12:25;;;;;;;5.20;4.07;;;;;;;;;;4994688;28;20227;-74
2021/11/22 06:14:52;;;;;;;6.43;3.97;;;;;;;;;;4995520;28;20299;-74
2021/11/22 06:17:18;;;;;;;6.60;4.40;;;;;;;;;;4995322;28;20259;-74
2021/11/22 06:19:44;;;;;;;5.67;4.33;;;;;;;;;;4995923;28;20217;-74
2021/11/22 06:22:09;;;;;;;6.03;4.47;;;;;;;;;;5011336;28;20229;-74
2021/11/22 06:24:40;;;;;;;5.90;4.60;;;;;;;;;;4975431;28;20234;-74
2021/11/22 06:27:05;;;;;;;6.53;4.30;;;;;;;;;;4989840;28;20243;-74
2021/11/22 06:29:31;;;;;;;8.43;4.90;;;;;;;;;;4994553;28;20224;-74
2021/11/22 06:31:57;;;;;;;6.53;5.37;;;;;;;;;;5011039;28;20600;-74
2021/11/22 06:34:22;;;;;;;9.03;5.20;;;;;;;;;;5001643;28;20231;-75
2021/11/22 06:36:50;;;;;;;8.00;5.20;;;;;;;;;;5010318;28;20256;-76
2021/11/22 06:39:16;;;;;;;8.37;4.87;;;;;;;;;;5014737;28;20215;-75
2021/11/22 06:41:49;;;;;;;5.70;4.97;;;;;;;;;;5021466;28;20220;-75
2021/11/22 06:44:19;;;;;;;8.37;5.40;;;;;;;;;;5009290;28;20220;-74
2021/11/22 06:46:48;;;;;;;7.10;5.37;;;;;;;;;;5010250;28;20221;-74
2021/11/22 06:49:19;;;;;;;11.47;6.00;;;;;;;;;;5010208;28;20266;-73
2021/11/22 06:51:46;;;;;;;11.47;6.80;;;;;;;;;;4994769;28;20231;-74
2021/11/22 06:54:12;;;;;;;15.53;7.60;;;;;;;;;;5010451;28;20259;-74
2021/11/22 06:56:40;;;;;;;11.53;7.10;;;;;;;;;;5011367;28;20225;-74
2021/11/22 06:59:06;;;;;;;15.73;7.77;;;;;;;;;;5010550;28;20223;-76
2021/11/22 07:01:31;;;;;;;13.60;7.57;;;;;;;;;;5010758;28;20216;-74
2021/11/22 07:03:57;;;;;;;14.20;7.37;;;;;;;;;;4994650;28;20213;-73
2021/11/22 07:06:25;;;;;;;11.17;7.80;;;;;;;;;;5006326;28;20222;-74
2021/11/22 07:08:55;;;;;;;13.50;7.03;;;;;;;;;;5019796;28;20216;-73
2021/11/22 07:11:28;;;;;;;11.57;7.17;;;;;;;;;;4994371;28;20267;-74
2021/11/22 07:13:55;;;;;;;9.60;6.47;;;;;;;;;;4994668;28;20802;-73
2021/11/22 07:16:23;;;;;;;12.83;6.97;;;;;;;;;;4977070;28;20229;-74
2021/11/22 07:18:52;;;;;;;9.03;7.13;;;;;;;;;;5027160;28;20231;-73
2021/11/22 07:21:20;;;;;;;10.93;8.07;;;;;;;;;;4994691;28;20228;-73
2021/11/22 07:23:48;;;;;;;16.70;7.93;;;;;;;;;;5011826;28;20596;-74
2021/11/22 07:26:16;;;;;;;11.23;7.63;;;;;;;;;;4993169;28;20228;-73
2021/11/22 07:28:49;;;;;;;14.83;7.80;;;;;;;;;;5010310;28;20232;-77
2021/11/22 07:31:14;;;;;;;13.83;7.53;;;;;;;;;;5010070;28;20315;-74
2021/11/22 07:33:42;;;;;;;15.60;7.67;;;;;;;;;;4992310;28;20316;-75
2021/11/22 07:36:09;;;;;;;13.23;8.77;;;;;;;;;;4985756;28;20225;-75
2021/11/22 07:38:37;;;;;;;12.40;8.13;;;;;;;;;;4993282;28;20608;-75
2021/11/22 07:41:05;;;;;;;15.03;8.17;;;;;;;;;;5028488;28;20256;-73
2021/11/22 07:43:33;;;;;;;11.97;7.73;;;;;;;;;;4997908;28;20659;-74
2021/11/22 07:46:01;;;;;;;11.50;7.53;;;;;;;;;;4990192;28;20234;-74
2021/11/22 07:48:27;;;;;;;14.27;7.97;;;;;;;;;;4990701;28;20663;-74
2021/11/22 07:50:53;;;;;;;13.27;7.70;;;;;;;;;;4988610;28;20221;-73
2021/11/22 07:53:18;;;;;;;14.90;8.07;;;;;;;;;;4992352;28;20221;-72
2021/11/22 07:55:47;;;;;;;12.67;8.17;;;;;;;;;;4988292;28;20236;-74
2021/11/22 07:58:14;;;;;;;12.37;8.60;;;;;;;;;;5021718;28;20232;-74
2021/11/22 08:00:45;;;;;;;13.67;8.10;;;;;;;;;;5015039;28;20227;-75
2021/11/22 08:03:13;;;;;;;16.63;9.50;;;;;;;;;;5011501;28;20213;-73
2021/11/22 08:05:39;;;;;;;11.60;8.83;;;;;;;;;;4997354;28;20316;-73
2021/11/22 08:08:07;;;;;;;19.07;9.47;;;;;;;;;;4999903;28;20239;-74
2021/11/22 08:10:35;;;;;;;21.13;10.23;;;;;;;;;;5003995;28;20597;-75
2021/11/22 08:13:08;;;;;;;20.87;11.40;;;;;;;;;;4985392;28;20217;-73
2021/11/22 08:15:37;;;;;;;13.77;9.73;;;;;;;;;;4996622;28;20270;-74
2021/11/22 08:18:05;;;;;;;16.67;9.70;;;;;;;;;;4963127;28;20206;-74
2021/11/22 08:20:31;;;;;;;21.03;11.87;;;;;;;;;;4981713;28;20236;-76
2021/11/22 08:22:57;;;;;;;19.03;11.00;;;;;;;;;;5010326;28;20213;-74
2021/11/22 08:25:27;;;;;;;23.40;11.73;;;;;;;;;;4990832;28;20607;-75
2021/11/22 08:27:57;;;;;;;11.80;8.67;;;;;;;;;;5019666;28;20227;-74
2021/11/22 08:30:23;;;;;;;16.23;9.10;;;;;;;;;;5013671;28;20256;-75
2021/11/22 08:32:52;;;;;;;14.80;8.47;;;;;;;;;;4993390;28;20300;-74
2021/11/22 08:35:23;;;;;;;13.10;9.27;;;;;;;;;;4994343;28;20776;-74
2021/11/22 08:37:51;;;;;;;16.03;8.97;;;;;;;;;;4995457;28;20231;-73
2021/11/22 08:40:20;;;;;;;15.63;9.17;;;;;;;;;;5026684;28;20712;-75
2021/11/22 08:42:46;;;;;;;17.03;9.93;;;;;;;;;;5014631;28;20231;-74
2021/11/22 08:45:14;;;;;;;16.93;9.57;;;;;;;;;;4996520;28;20228;-74
2021/11/22 08:47:40;;;;;;;25.13;10.10;;;;;;;;;;4990473;28;20217;-73
2021/11/22 08:50:13;;;;;;;25.57;10.23;;;;;;;;;;5012750;28;20259;-73
2021/11/22 08:52:43;;;;;;;20.63;9.90;;;;;;;;;;4997904;28;20253;-76
2021/11/22 08:55:09;;;;;;;23.00;10.17;;;;;;;;;;5011277;28;20224;-76
2021/11/22 08:57:35;;;;;;;47.73;14.27;;;;;;;;;;4980028;28;20307;-75
2021/11/22 09:00:06;;;;;;;44.70;15.07;;;;;;;;;;5012609;28;20276;-75
2021/11/22 09:02:33;;;;;;;34.87;14.00;;;;;;;;;;4998100;28;20217;-75
2021/11/22 09:05:00;;;;;;;56.40;14.27;;;;;;;;;;5015697;28;20263;-76
2021/11/22 09:07:28;;;;;;;36.43;12.17;;;;;;;;;;4995514;28;20216;-75
2021/11/22 09:09:54;;;;;;;31.27;12.80;;;;;;;;;;4994364;28;20212;-74
2021/11/22 09:12:20;;;;;;;35.07;11.87;;;;;;;;;;5034670;28;20220;-71
2021/11/22 09:14:46;;;;;;;23.87;11.00;;;;;;;;;;5002781;28;20216;-74
2021/11/22 09:17:12;;;;;;;24.30;11.20;;;;;;;;;;4996439;28;20217;-70
2021/11/22 09:19:37;;;;;;;22.47;12.40;;;;;;;;;;5015403;28;20305;-72
2021/11/22 09:22:03;;;;;;;28.20;11.23;;;;;;;;;;4996724;28;20221;-71
2021/11/22 09:24:29;;;;;;;15.40;10.50;;;;;;;;;;5013885;28;20304;-70
2021/11/22 09:26:55;;;;;;;26.27;9.87;;;;;;;;;;4996503;28;20312;-71
2021/11/22 09:29:21;;;;;;;22.80;10.03;;;;;;;;;;5018418;28;20224;-72
2021/11/22 09:31:49;;;;;;;29.20;10.27;;;;;;;;;;4996340;28;20311;-71
2021/11/22 09:34:16;;;;;;;25.47;9.17;;;;;;;;;;5009353;28;20220;-71
2021/11/22 09:36:47;;;;;;;31.27;10.07;;;;;;;;;;4998779;28;20225;-70
2021/11/22 09:39:13;;;;;;;22.27;9.50;;;;;;;;;;5019125;28;20233;-76
2021/11/22 09:41:39;;;;;;;14.47;9.13;;;;;;;;;;5007305;28;20217;-77
2021/11/22 09:44:07;;;;;;;13.93;8.57;;;;;;;;;;5008454;28;20221;-76
2021/11/22 09:46:37;;;;;;;12.77;7.40;;;;;;;;;;4994290;28;20283;-76
2021/11/22 09:49:04;;;;;;;13.37;9.03;;;;;;;;;;4982442;28;20300;-76
2021/11/22 09:51:30;;;;;;;14.67;9.03;;;;;;;;;;4980791;28;20687;-75
2021/11/22 09:53:56;;;;;;;16.27;8.70;;;;;;;;;;4984208;28;20220;-75
2021/11/22 09:56:25;;;;;;;12.77;8.53;;;;;;;;;;4989188;28;20302;-77
2021/11/22 09:58:55;;;;;;;12.70;7.33;;;;;;;;;;5018022;28;20307;-76
2021/11/22 10:01:21;;;;;;;20.03;8.30;;;;;;;;;;5012481;28;20597;-75
2021/11/22 10:04:00;;;;;;;13.93;8.47;;;;;;;;;;4980314;28;20267;-75
2021/11/22 10:06:40;;;;;;;13.13;7.90;;;;;;;;;;5005783;28;20263;-75
2021/11/22 10:09:11;;;;;;;22.27;8.70;;;;;;;;;;4980616;28;20228;-76
2021/11/22 10:11:52;;;;;;;21.00;8.77;;;;;;;;;;5002944;28;20225;-77
2021/11/22 10:14:25;;;;;;;19.43;8.63;;;;;;;;;;4995920;28;20217;-78
2021/11/22 10:16:53;;;;;;;14.47;8.30;;;;;;;;;;5013076;28;20224;-75
2021/11/22 10:19:20;;;;;;;16.43;9.50;;;;;;;;;;4997078;28;20705;-75
2021/11/22 10:21:45;;;;;;;17.17;8.80;;;;;;;;;;5013177;28;20221;-75
2021/11/22 10:24:11;;;;;;;17.80;9.20;;;;;;;;;;5012554;28;20221;-75
2021/11/22 10:26:45;;;;;;;13.43;9.60;;;;;;;;;;4993226;28;20236;-74
2021/11/22 10:29:34;;;;;;;12.37;9.03;;;;;;;;;;5023436;28;20335;-75
2021/11/22 10:32:15;;;;;;;11.67;8.83;;;;;;;;;;4994191;28;20227;-76
2021/11/22 10:34:41;;;;;;;14.40;10.53;;;;;;;;;;4994973;28;20225;-75
2021/11/22 10:37:09;;;;;;;14.40;10.47;;;;;;;;;;4999273;28;20234;-74
2021/11/22 10:39:40;;;;;;;15.10;11.10;;;;;;;;;;5007000;28;20221;-74
2021/11/22 10:42:25;;;;;;;13.70;10.70;;;;;;;;;;4996609;28;20276;-76
2021/11/22 10:44:55;;;;;;;11.90;9.37;;;;;;;;;;4989375;28;20227;-75
2021/11/22 10:47:24;;;;;;;11.70;9.00;;;;;;;;;;5012297;28;20221;-75
2021/11/22 10:49:59;;;;;;;28.40;10.20;;;;;;;;;;5024059;28;20225;-76
2021/11/22 10:52:27;;;;;;;11.67;9.17;;;;;;;;;;5018632;28;20224;-74
2021/11/22 10:54:55;;;;;;;14.07;7.97;;;;;;;;;;5013355;28;20244;-75
2021/11/22 10:57:22;;;;;;;10.63;8.80;;;;;;;;;;5024193;28;20325;-74
2021/11/22 10:59:48;;;;;;;9.90;8.77;;;;;;;;;;5016764;28;20221;-75
2021/11/22 11:02:16;;;;;;;12.93;10.20;;;;;;;;;;5011992;28;20236;-75
2021/11/22 11:04:44;;;;;;;12.80;9.87;;;;;;;;;;4961338;28;20217;-75
2021/11/22 11:07:11;;;;;;;12.80;10.27;;;;;;;;;;4993688;28;20216;-74
2021/11/22 11:09:51;;;;;;;14.40;10.70;;;;;;;;;;5007555;28;20303;-76
2021/11/22 11:12:23;;;;;;;11.40;9.83;;;;;;;;;;5010970;28;20227;-76
2021/11/22 11:14:52;;;;;;;9.80;8.83;;;;;;;;;;4975630;28;20220;-76
2021/11/22 11:17:25;;;;;;;10.43;8.97;;;;;;;;;;5002936;28;20223;-77
2021/11/22 11:19:55;;;;;;;10.00;8.23;;;;;;;;;;4991765;28;20663;-76
2021/11/22 11:22:25;;;;;;;9.03;8.03;;;;;;;;;;5003671;28;20299;-76
2021/11/22 11:24:56;;;;;;;7.53;6.20;;;;;;;;;;4954765;28;20232;-75
2021/11/22 11:27:22;;;;;;;6.83;6.20;;;;;;;;;;4986450;28;20643;-77
2021/11/22 11:29:53;;;;;;;7.73;6.37;;;;;;;;;;5001471;28;20803;-75
2021/11/22 11:32:21;;;;;;;7.17;6.03;;;;;;;;;;5013216;28;20682;-75
2021/11/22 11:34:49;;;;;;;6.20;5.60;;;;;;;;;;5012469;28;20235;-76
2021/11/22 11:37:33;;;;;;;6.87;5.07;;;;;;;;;;5008803;28;20209;-75
2021/11/22 11:40:20;;;;;;;8.93;4.80;;;;;;;;;;5002777;28;20229;-74
2021/11/22 11:43:11;;;;;;;5.17;4.67;;;;;;;;;;4997287;28;20217;-76
2021/11/22 11:45:54;;;;;;;4.83;4.43;;;;;;;;;;5042309;28;20228;-76
2021/11/22 11:48:46;;;;;;;4.77;4.33;;;;;;;;;;5033778;28;20239;-77
2021/11/22 11:51:14;;;;;;;4.50;4.10;;;;;;;;;;5007933;28;20220;-78
2021/11/22 11:54:00;;;;;;;4.63;4.17;;;;;;;;;;4993399;28;20256;-78
2021/11/22 11:56:50;;;;;;;4.70;4.30;;;;;;;;;;5007079;28;20234;-74
2021/11/22 11:59:26;;;;;;;5.20;4.13;;;;;;;;;;5008270;28;20272;-75
2021/11/22 12:02:08;;;;;;;4.40;4.00;;;;;;;;;;5000108;28;20306;-74
2021/11/22 12:04:43;;;;;;;4.20;3.80;;;;;;;;;;5009315;28;20242;-74
2021/11/22 12:07:11;;;;;;;4.93;4.33;;;;;;;;;;5007661;28;20220;-75
2021/11/22 12:09:43;;;;;;;4.67;4.03;;;;;;;;;;5004898;28;20217;-74
2021/11/22 12:12:11;;;;;;;6.43;3.93;;;;;;;;;;5006141;28;20225;-75
2021/11/22 12:15:10;;;;;;;4.20;3.80;;;;;;;;;;4989441;28;20233;-74
2021/11/22 12:17:35;;;;;;;4.10;3.63;;;;;;;;;;5002836;28;20243;-74
2021/11/22 12:20:05;;;;;;;5.33;3.80;;;;;;;;;;5010430;28;20225;-72
2021/11/22 12:22:35;;;;;;;4.30;3.90;;;;;;;;;;5010169;28;20243;-74
2021/11/22 12:25:03;;;;;;;4.50;3.67;;;;;;;;;;5009671;28;20975;-75
2021/11/22 12:27:32;;;;;;;3.60;3.30;;;;;;;;;;5005818;28;20228;-75
2021/11/22 12:30:03;;;;;;;4.20;3.50;;;;;;;;;;5014255;28;20228;-75
2021/11/22 12:32:33;;;;;;;6.87;3.30;;;;;;;;;;5015328;28;20296;-75
2021/11/22 12:35:05;;;;;;;3.37;3.07;;;;;;;;;;4991033;28;20842;-76
2021/11/22 12:37:34;;;;;;;3.87;3.20;;;;;;;;;;5002858;28;20239;-75
2021/11/22 12:40:16;;;;;;;4.57;3.47;;;;;;;;;;5013952;28;20228;-76
2021/11/22 12:42:52;;;;;;;3.33;3.03;;;;;;;;;;5020129;28;20223;-75
2021/11/22 12:45:24;;;;;;;5.57;3.30;;;;;;;;;;5018912;28;20228;-75
2021/11/22 12:47:52;;;;;;;5.93;3.80;;;;;;;;;;5016075;28;20227;-75
2021/11/22 12:50:19;;;;;;;3.27;2.97;;;;;;;;;;5014431;28;20225;-76
2021/11/22 12:53:06;;;;;;;2.80;2.60;;;;;;;;;;4999424;28;20599;-76
2021/11/22 12:55:45;;;;;;;4.40;3.00;;;;;;;;;;5016770;28;20229;-76
2021/11/22 12:58:27;;;;;;;3.27;2.80;;;;;;;;;;5010119;28;20208;-75
2021/11/22 13:00:56;;;;;;;4.10;2.50;;;;;;;;;;5001667;28;20225;-75
2021/11/22 13:03:22;;;;;;;5.10;3.00;;;;;;;;;;4993005;28;20737;-75
2021/11/22 13:05:53;;;;;;;3.73;2.80;;;;;;;;;;4976494;28;20249;-74
2021/11/22 13:08:19;;;;;;;3.03;2.50;;;;;;;;;;5016901;28;20227;-72
2021/11/22 13:10:52;;;;;;;4.13;2.60;;;;;;;;;;5016586;28;20235;-75
2021/11/22 13:15:59;;;;;;;4.03;2.90;;;;;;;;;;4997057;28;20228;-75
2021/11/22 13:18:27;;;;;;;5.43;3.47;;;;;;;;;;4998700;28;20244;-76
2021/11/22 13:20:57;;;;;;;6.53;3.73;;;;;;;;;;5030386;28;20291;-75
2021/11/22 13:23:31;;;;;;;5.70;5.00;;;;;;;;;;4988211;28;20225;-74
2021/11/22 13:26:02;;;;;;;5.63;2.20;;;;;;;;;;4994918;28;20225;-76
2021/11/22 13:28:31;;;;;;;3.20;1.83;;;;;;;;;;4982884;28;20255;-75
2021/11/22 13:30:59;;;;;;;2.83;1.67;;;;;;;;;;4979966;28;20319;-74
2021/11/22 13:33:25;;;;;;;3.83;2.37;;;;;;;;;;4982385;28;20220;-76
2021/11/22 13:35:59;;;;;;;3.87;1.90;;;;;;;;;;4979661;28;20227;-76
2021/11/22 13:38:27;;;;;;;4.00;1.73;;;;;;;;;;4994253;28;20258;-73
2021/11/22 13:40:57;;;;;;;2.00;1.67;;;;;;;;;;5014818;28;20226;-74
2021/11/22 13:43:29;;;;;;;3.03;1.30;;;;;;;;;;5024819;28;20706;-74
2021/11/22 13:45:56;;;;;;;2.43;1.40;;;;;;;;;;5012175;28;20283;-75
2021/11/22 13:48:22;;;;;;;3.80;1.27;;;;;;;;;;5008609;28;20217;-75
2021/11/22 13:50:49;;;;;;;3.07;1.67;;;;;;;;;;4998167;28;20220;-76
2021/11/22 13:53:17;;;;;;;2.60;1.37;;;;;;;;;;4985924;28;20232;-74
2021/11/22 13:55:48;;;;;;;2.80;1.33;;;;;;;;;;5005336;28;20641;-74
2021/11/22 13:58:16;;;;;;;3.83;1.33;;;;;;;;;;4990356;28;20275;-75
2021/11/22 14:00:52;;;;;;;1.47;1.30;;;;;;;;;;4995939;28;20217;-75
2021/11/22 14:03:22;;;;;;;2.70;1.47;;;;;;;;;;4971483;28;20295;-75
2021/11/22 14:05:49;;;;;;;2.23;1.50;;;;;;;;;;4992206;28;20233;-76
2021/11/22 14:08:19;;;;;;;2.43;1.30;;;;;;;;;;4997672;28;20304;-75
2021/11/22 14:10:49;;;;;;;3.43;1.70;;;;;;;;;;4981674;28;20569;-75
2021/11/22 14:13:16;;;;;;;2.43;1.60;;;;;;;;;;4987668;28;20217;-76
2021/11/22 14:15:45;;;;;;;2.03;1.80;;;;;;;;;;5003537;28;20284;-75
2021/11/22 14:18:19;;;;;;;2.60;1.60;;;;;;;;;;5007122;28;20240;-76
2021/11/22 14:20:46;;;;;;;4.00;1.80;;;;;;;;;;4978287;28;20702;-74
2021/11/22 14:23:12;;;;;;;2.83;1.60;;;;;;;;;;4989824;28;20216;-75
2021/11/22 14:25:38;;;;;;;5.50;2.03;;;;;;;;;;5001240;28;20233;-75
2021/11/22 14:28:14;;;;;;;3.47;1.80;;;;;;;;;;5006429;28;20750;-75
2021/11/22 14:30:41;;;;;;;3.27;1.50;;;;;;;;;;4977980;28;20216;-75
2021/11/22 14:33:19;;;;;;;1.87;1.50;;;;;;;;;;4985446;28;20213;-74
2021/11/22 14:36:06;;;;;;;3.03;1.70;;;;;;;;;;4979215;28;20227;-75
2021/11/22 14:38:41;;;;;;;2.60;1.90;;;;;;;;;;5014682;28;20310;-74
2021/11/22 14:41:10;;;;;;;4.37;1.87;;;;;;;;;;4993672;28;20240;-75
2021/11/22 14:43:46;;;;;;;5.07;1.90;;;;;;;;;;5004889;28;20252;-73
2021/11/22 14:46:17;;;;;;;3.33;1.87;;;;;;;;;;4973640;28;20228;-74
2021/11/22 14:48:46;;;;;;;4.20;2.20;;;;;;;;;;5007857;28;20217;-74
2021/11/22 14:51:12;;;;;;;4.37;2.20;;;;;;;;;;5010919;28;20213;-75
2021/11/22 14:53:41;;;;;;;4.43;2.33;;;;;;;;;;5007995;28;20248;-76